Time;durP1;ratioP1;P1;durP2;ratioP2;P2;SDS_P1;SDS_P2;PMS_P1;PMS_P2;Temp;Humidity;BMP_temperature;BMP_pressure;BME280_temperature;BME280_humidity;BME280_pressure;Samples;Min_cycle;Max_cycle;Signal;HPM_P1;HPM_P2
2021/09/17 00:00:29;;;;;;;37.48;23.90;;;;;;;9.54;100.00;101237.46;1754927;80;21092;-86
2021/09/17 00:02:55;;;;;;;43.02;25.45;;;;;;;9.57;100.00;101242.48;1731939;81;21038;-84
2021/09/17 00:05:22;;;;;;;46.68;23.40;;;;;;;9.60;100.00;101244.06;1754775;81;20997;-85
2021/09/17 00:07:49;;;;;;;72.92;25.75;;;;;;;9.63;100.00;101244.70;1735588;81;21089;-82
2021/09/17 00:10:17;;;;;;;43.63;22.75;;;;;;;9.66;100.00;101244.16;1735917;81;21010;-85
2021/09/17 00:12:43;;;;;;;38.73;21.42;;;;;;;9.68;100.00;101247.51;1735525;81;21046;-86
2021/09/17 00:15:12;;;;;;;37.23;21.60;;;;;;;9.60;100.00;101249.27;1735774;81;21086;-82
2021/09/17 00:17:39;;;;;;;41.23;23.27;;;;;;;9.52;100.00;101252.34;1754877;81;21097;-84
2021/09/17 00:20:10;;;;;;;64.47;23.40;;;;;;;9.42;100.00;101252.52;1764632;81;22010;-81
2021/09/17 00:22:39;;;;;;;51.90;23.38;;;;;;;9.33;100.00;101259.56;1739900;81;21037;-83
2021/09/17 00:25:08;;;;;;;48.35;23.87;;;;;;;9.33;100.00;101259.56;1739759;80;21020;-84
2021/09/17 00:27:37;;;;;;;43.58;22.77;;;;;;;9.34;100.00;101258.64;1770037;80;21037;-82
2021/09/17 00:30:06;;;;;;;45.28;23.12;;;;;;;9.36;100.00;101254.19;1739847;81;20994;-82
2021/09/17 00:32:33;;;;;;;42.62;23.22;;;;;;;9.39;100.00;101258.74;1739912;81;21002;-81
2021/09/17 00:35:01;;;;;;;40.58;23.62;;;;;;;9.42;100.00;101255.12;1739476;81;20975;-87
2021/09/17 00:37:28;;;;;;;43.40;23.40;;;;;;;9.43;100.00;101256.80;1740103;81;21079;-82
2021/09/17 00:39:55;;;;;;;45.70;24.80;;;;;;;9.48;100.00;101252.14;1741331;81;21116;-82
2021/09/17 00:42:22;;;;;;;41.88;23.45;;;;;;;9.52;100.00;101242.39;1747760;81;21132;-83
2021/09/17 00:44:49;;;;;;;37.93;22.77;;;;;;;9.53;100.00;101233.22;1748043;81;21457;-85
2021/09/17 00:47:16;;;;;;;44.55;22.42;;;;;;;9.54;100.00;101234.05;1767551;81;20990;-86
2021/09/17 00:49:44;;;;;;;38.63;20.65;;;;;;;9.53;100.00;101233.66;1747870;81;21088;-86
2021/09/17 00:52:11;;;;;;;37.13;19.50;;;;;;;9.53;100.00;101234.97;1767584;80;21003;-83
2021/09/17 00:54:38;;;;;;;33.30;19.00;;;;;;;9.43;100.00;101238.13;1747886;81;21006;-82
2021/09/17 00:57:06;;;;;;;35.95;19.30;;;;;;;9.35;100.00;101236.92;1747899;81;21674;-85
2021/09/17 00:59:33;;;;;;;37.35;19.95;;;;;;;9.32;100.00;101234.05;1748089;81;21061;-81
2021/09/17 01:02:00;;;;;;;26.10;17.07;;;;;;;9.30;100.00;101228.92;1748291;81;21121;-84
2021/09/17 01:04:26;;;;;;;27.50;17.00;;;;;;;9.29;100.00;101232.92;1747935;81;21721;-81
2021/09/17 01:06:54;;;;;;;31.17;17.17;;;;;;;9.25;100.00;101230.97;1767913;81;21572;-84
2021/09/17 01:09:21;;;;;;;28.27;16.07;;;;;;;9.21;100.00;101231.24;1767621;81;21077;-81
2021/09/17 01:11:48;;;;;;;28.98;15.72;;;;;;;9.11;100.00;101229.19;1747980;81;21042;-85
2021/09/17 01:14:16;;;;;;;24.80;14.87;;;;;;;8.99;100.00;101227.33;1767772;81;21778;-83
2021/09/17 01:16:45;;;;;;;26.62;15.08;;;;;;;8.92;100.00;101220.82;1767782;81;21806;-81
2021/09/17 01:19:12;;;;;;;31.87;15.58;;;;;;;8.92;100.00;101223.42;1767576;81;21050;-87
2021/09/17 01:21:40;;;;;;;27.37;14.68;;;;;;;8.89;100.00;101221.84;1767868;81;21030;-85
2021/09/17 01:24:07;;;;;;;31.68;16.10;;;;;;;8.73;100.00;101223.66;1747917;81;21050;-82
2021/09/17 01:26:37;;;;;;;30.82;16.45;;;;;;;8.55;100.00;101219.03;1767534;80;20974;-83
2021/09/17 01:29:04;;;;;;;32.13;15.78;;;;;;;8.29;100.00;101222.16;1747905;81;21738;-84
2021/09/17 01:31:33;;;;;;;23.07;14.38;;;;;;;8.08;100.00;101215.09;1767750;81;21034;-82
2021/09/17 01:34:10;;;;;;;37.73;15.20;;;;;;;7.87;100.00;101211.47;1767026;80;21037;-82
2021/09/17 01:36:37;;;;;;;25.75;14.10;;;;;;;7.74;100.00;101207.40;1767845;80;20986;-81
2021/09/17 01:39:04;;;;;;;25.70;15.58;;;;;;;7.66;100.00;101206.12;1747913;81;21025;-83
2021/09/17 01:41:31;;;;;;;22.90;15.00;;;;;;;7.63;100.00;101203.23;1767253;80;21046;-88
2021/09/17 01:43:58;;;;;;;24.70;14.78;;;;;;;7.77;100.00;101202.50;1767591;80;21109;-84
2021/09/17 01:46:26;;;;;;;32.93;15.28;;;;;;;7.92;100.00;101202.14;1747993;81;21580;-81
2021/09/17 01:48:55;;;;;;;24.85;14.73;;;;;;;8.06;100.00;101194.88;1767553;81;21034;-83
2021/09/17 01:51:24;;;;;;;24.82;14.65;;;;;;;8.16;100.00;101201.23;1751379;81;21038;-84
2021/09/17 01:53:54;;;;;;;27.70;14.23;;;;;;;8.24;100.00;101202.13;1747049;82;21006;-85
2021/09/17 01:56:21;;;;;;;29.42;14.50;;;;;;;8.31;100.00;101197.41;1747650;82;22063;-84
2021/09/17 01:58:48;;;;;;;26.60;14.28;;;;;;;8.37;100.00;101191.89;1691135;83;22073;-84
2021/09/17 02:01:15;;;;;;;23.40;14.43;;;;;;;8.45;100.00;101192.27;1688622;84;21106;-81
2021/09/17 02:03:42;;;;;;;20.60;14.10;;;;;;;8.53;100.00;101186.20;1688585;84;22119;-82
2021/09/17 02:06:12;;;;;;;25.92;14.33;;;;;;;8.56;100.00;101186.52;1689024;84;21042;-82
2021/09/17 02:08:41;;;;;;;27.85;14.50;;;;;;;8.63;100.00;101185.67;1706535;84;21023;-88
2021/09/17 02:11:08;;;;;;;25.12;14.28;;;;;;;8.69;100.00;101182.75;1688595;84;21839;-87
2021/09/17 02:13:36;;;;;;;20.97;12.47;;;;;;;8.75;100.00;101188.02;1709241;84;22337;-89
2021/09/17 02:16:05;;;;;;;22.70;13.90;;;;;;;8.69;100.00;101181.45;1709321;84;21816;-83
2021/09/17 02:18:33;;;;;;;29.15;15.03;;;;;;;8.65;100.00;101188.55;1709068;84;21062;-85
2021/09/17 02:21:00;;;;;;;27.62;15.53;;;;;;;8.68;100.00;101187.56;1709084;84;21561;-81
2021/09/17 02:23:28;;;;;;;26.07;15.30;;;;;;;8.60;100.00;101181.98;1708928;84;21550;-86
2021/09/17 02:25:55;;;;;;;23.65;15.18;;;;;;;8.45;100.00;101179.28;1709110;84;21007;-82
2021/09/17 02:28:22;;;;;;;23.90;15.50;;;;;;;8.37;100.00;101179.73;1709113;84;21903;-82
2021/09/17 02:30:49;;;;;;;26.37;15.48;;;;;;;8.41;100.00;101182.17;1708956;84;21542;-85
2021/09/17 02:33:17;;;;;;;38.92;15.45;;;;;;;8.47;100.00;101181.84;1688688;84;20975;-85
2021/09/17 02:35:44;;;;;;;28.00;15.15;;;;;;;8.50;100.00;101180.35;1709178;84;21072;-85
2021/09/17 02:38:11;;;;;;;49.93;16.97;;;;;;;8.53;100.00;101173.22;1709276;84;21117;-82
2021/09/17 02:40:38;;;;;;;34.38;16.23;;;;;;;8.55;100.00;101174.91;1661687;85;21737;-86
2021/09/17 02:43:05;;;;;;;56.25;17.77;;;;;;;8.60;100.00;101169.00;1711583;83;20999;-83
2021/09/17 02:45:32;;;;;;;36.45;17.80;;;;;;;8.65;100.00;101163.89;1714091;83;21403;-83
2021/09/17 02:47:59;;;;;;;41.90;17.25;;;;;;;8.75;100.00;101163.36;1713940;83;21063;-82
2021/09/17 02:50:26;;;;;;;30.43;17.70;;;;;;;8.80;100.00;101160.05;1697063;82;21073;-82
2021/09/17 02:52:53;;;;;;;26.77;16.55;;;;;;;8.84;100.00;101154.58;1697015;82;22261;-87
2021/09/17 02:55:21;;;;;;;27.75;16.73;;;;;;;8.88;100.00;101159.58;1707827;82;20991;-82
2021/09/17 02:57:49;;;;;;;31.68;17.40;;;;;;;8.83;100.00;101156.80;1687936;83;21422;-82
2021/09/17 03:00:20;;;;;;;28.60;16.17;;;;;;;8.77;100.00;101159.73;1697422;83;20964;-83
2021/09/17 03:02:47;;;;;;;52.35;18.45;;;;;;;8.72;100.00;101165.67;1721138;82;21493;-84
2021/09/17 03:05:14;;;;;;;46.35;17.95;;;;;;;8.73;100.00;101160.03;1707330;83;21802;-81
2021/09/17 03:07:41;;;;;;;55.30;18.00;;;;;;;8.80;100.00;101160.05;1716993;83;20967;-88
2021/09/17 03:10:10;;;;;;;43.35;17.85;;;;;;;8.87;100.00;101161.80;1707154;83;21117;-82
2021/09/17 03:12:39;;;;;;;40.05;18.65;;;;;;;8.90;100.00;101157.73;1716011;83;21104;-86
2021/09/17 03:15:08;;;;;;;33.13;17.00;;;;;;;8.92;100.00;101156.70;1694365;83;21053;-82
2021/09/17 03:17:37;;;;;;;44.63;16.97;;;;;;;8.91;100.00;101159.41;1679270;83;21121;-82
2021/09/17 03:20:05;;;;;;;43.92;17.85;;;;;;;8.84;100.00;101159.78;1680488;83;21081;-85
2021/09/17 03:22:33;;;;;;;47.60;19.73;;;;;;;8.82;100.00;101159.02;1702884;83;21033;-86
2021/09/17 03:25:00;;;;;;;38.10;20.08;;;;;;;8.83;100.00;101159.40;1682145;83;21099;-86
2021/09/17 03:27:29;;;;;;;58.78;20.70;;;;;;;8.82;100.00;101163.36;1679168;83;21184;-83
2021/09/17 03:29:56;;;;;;;37.98;19.57;;;;;;;8.78;100.00;101165.31;1681852;83;21141;-81
2021/09/17 03:32:23;;;;;;;29.15;18.17;;;;;;;8.70;100.00;101157.12;1682266;83;21027;-84
2021/09/17 03:34:51;;;;;;;32.93;18.73;;;;;;;8.63;100.00;101160.57;1680453;84;21042;-85
2021/09/17 03:37:18;;;;;;;32.38;17.65;;;;;;;8.57;100.00;101160.94;1680704;83;21011;-84
2021/09/17 03:39:45;;;;;;;40.38;17.57;;;;;;;8.49;100.00;101157.95;1680922;83;21035;-82
2021/09/17 03:42:12;;;;;;;25.70;17.12;;;;;;;8.40;100.00;101155.84;1679024;83;21298;-83
2021/09/17 03:44:40;;;;;;;47.03;17.73;;;;;;;8.33;100.00;101163.95;1690556;83;21161;-86
2021/09/17 03:47:08;;;;;;;39.90;16.93;;;;;;;8.29;100.00;101157.75;1696943;83;21136;-83
2021/09/17 03:49:35;;;;;;;28.32;14.58;;;;;;;8.26;100.00;101166.52;1698654;83;21068;-83
2021/09/17 03:52:02;;;;;;;23.62;13.68;;;;;;;8.24;100.00;101164.94;1683605;83;21043;-85
2021/09/17 03:54:29;;;;;;;25.20;14.18;;;;;;;8.17;100.00;101169.19;1699707;83;21158;-84
2021/09/17 03:56:59;;;;;;;20.92;14.35;;;;;;;8.09;100.00;101167.48;1685171;83;21095;-84
2021/09/17 03:59:26;;;;;;;31.27;13.98;;;;;;;8.05;100.00;101176.37;1695087;83;21056;-85
2021/09/17 04:01:54;;;;;;;27.80;13.88;;;;;;;8.05;100.00;101176.37;1686451;83;21064;-82
2021/09/17 04:04:22;;;;;;;37.28;14.80;;;;;;;8.06;100.00;101175.42;1676532;84;21058;-84
2021/09/17 04:06:50;;;;;;;26.77;14.93;;;;;;;8.09;100.00;101176.56;1703554;83;20995;-85
2021/09/17 04:09:17;;;;;;;22.13;14.18;;;;;;;8.12;100.00;101174.25;1702954;83;20999;-84
2021/09/17 04:11:45;;;;;;;27.35;14.03;;;;;;;8.15;100.00;101172.80;1691528;83;21074;-82
2021/09/17 04:14:13;;;;;;;23.15;15.40;;;;;;;8.14;100.00;101170.64;1684372;83;21030;-85
2021/09/17 04:16:41;;;;;;;26.68;14.98;;;;;;;8.10;100.00;101172.20;1686916;83;21529;-85
2021/09/17 04:19:08;;;;;;;23.70;16.00;;;;;;;8.09;100.00;101171.38;1686573;83;22427;-85
2021/09/17 04:21:36;;;;;;;22.00;16.00;;;;;;;8.06;100.00;101165.05;1712115;83;21076;-83
2021/09/17 04:24:05;;;;;;;25.00;16.35;;;;;;;8.06;100.00;101162.45;1705972;83;21117;-85
2021/09/17 04:26:32;;;;;;;26.77;16.73;;;;;;;8.05;100.00;101164.23;1705970;84;21082;-81
2021/09/17 04:28:59;;;;;;;28.25;17.00;;;;;;;8.05;100.00;101162.11;1685298;84;21094;-81
2021/09/17 04:31:26;;;;;;;30.02;18.75;;;;;;;8.07;100.00;101160.24;1707148;82;21079;-82
2021/09/17 04:33:53;;;;;;;30.60;18.77;;;;;;;8.07;100.00;101157.64;1692752;83;21116;-82
2021/09/17 04:36:20;;;;;;;30.08;17.85;;;;;;;8.03;100.00;101158.75;1710447;83;21146;-79
2021/09/17 04:38:47;;;;;;;27.98;18.62;;;;;;;8.03;100.00;101158.75;1688649;83;21137;-81
2021/09/17 04:41:15;;;;;;;35.60;21.27;;;;;;;8.07;100.00;101157.64;1710771;83;21042;-83
2021/09/17 04:43:42;;;;;;;35.58;23.10;;;;;;;8.08;100.00;101152.84;1689021;84;21128;-85
2021/09/17 04:46:11;;;;;;;39.42;25.92;;;;;;;8.09;100.00;101157.11;1700538;83;20989;-82
2021/09/17 04:48:38;;;;;;;42.53;25.25;;;;;;;8.09;100.00;101150.62;1688977;84;21075;-82
2021/09/17 04:51:05;;;;;;;37.25;24.25;;;;;;;8.09;100.00;101147.20;1709701;83;21124;-81
2021/09/17 04:53:32;;;;;;;42.08;23.50;;;;;;;8.14;100.00;101148.59;1688863;84;21066;-84
2021/09/17 04:55:59;;;;;;;40.83;24.70;;;;;;;8.24;100.00;101151.97;1687580;83;21071;-81
2021/09/17 04:58:26;;;;;;;37.75;23.22;;;;;;;8.33;100.00;101152.28;1702320;83;21007;-84
2021/09/17 05:00:53;;;;;;;36.23;23.05;;;;;;;8.42;100.00;101147.48;1684720;83;21062;-85
2021/09/17 05:03:20;;;;;;;34.15;24.23;;;;;;;8.51;100.00;101153.03;1711696;83;21055;-87
2021/09/17 05:05:47;;;;;;;61.65;25.17;;;;;;;8.59;100.00;101149.97;1762051;81;20988;-83
2021/09/17 05:08:14;;;;;;;44.35;26.12;;;;;;;8.65;100.00;101146.19;1758000;81;21812;-82
2021/09/17 05:10:42;;;;;;;44.08;26.25;;;;;;;8.68;100.00;101148.14;1761682;81;21026;-80
2021/09/17 05:13:09;;;;;;;44.42;24.50;;;;;;;8.69;100.00;101147.70;1721912;81;21611;-84
2021/09/17 05:15:36;;;;;;;35.65;24.52;;;;;;;8.73;100.00;101147.05;1702505;83;21062;-80
2021/09/17 05:18:04;;;;;;;44.48;26.48;;;;;;;8.82;100.00;101149.94;1702959;83;20990;-82
2021/09/17 05:20:31;;;;;;;41.15;25.77;;;;;;;8.92;100.00;101144.20;1702398;83;21818;-80
2021/09/17 05:22:59;;;;;;;38.33;24.23;;;;;;;9.01;100.00;101143.66;1723528;81;21101;-80
2021/09/17 05:25:28;;;;;;;41.02;24.70;;;;;;;9.11;100.00;101142.63;1723326;82;21045;-81
2021/09/17 05:27:57;;;;;;;37.95;24.37;;;;;;;9.22;100.00;101138.89;1723406;82;21045;-81
2021/09/17 05:30:24;;;;;;;39.15;24.37;;;;;;;9.37;100.00;101148.00;1702703;83;21101;-81
2021/09/17 05:32:53;;;;;;;34.13;22.58;;;;;;;9.49;100.00;101139.43;1723394;81;21085;-85
2021/09/17 05:35:20;;;;;;;34.30;23.22;;;;;;;9.66;100.00;101140.14;1702706;82;21058;-86
2021/09/17 05:37:47;;;;;;;32.28;22.55;;;;;;;9.82;100.00;101143.44;1702651;83;21062;-81
2021/09/17 05:40:14;;;;;;;30.32;22.25;;;;;;;9.97;100.00;101137.73;1702686;83;21505;-84
2021/09/17 05:42:41;;;;;;;37.80;22.05;;;;;;;10.16;100.00;101146.94;1702732;83;21053;-79
2021/09/17 05:45:09;;;;;;;33.23;22.35;;;;;;;10.31;100.00;101145.94;1702878;81;21956;-81
2021/09/17 05:47:38;;;;;;;28.02;20.92;;;;;;;10.47;100.00;101141.05;1702565;82;21069;-79
2021/09/17 05:50:07;;;;;;;35.25;21.85;;;;;;;10.61;100.00;101140.98;1702748;82;21101;-83
2021/09/17 05:52:35;;;;;;;33.88;20.57;;;;;;;10.77;100.00;101139.95;1723414;81;21204;-83
2021/09/17 05:55:04;;;;;;;34.33;19.95;;;;;;;10.92;100.00;101134.16;1702922;82;21053;-81
2021/09/17 05:57:32;;;;;;;37.90;18.85;;;;;;;11.06;100.00;101135.33;1723749;81;21189;-82
2021/09/17 05:59:59;;;;;;;30.17;18.90;;;;;;;11.22;100.00;101136.91;1723182;81;21069;-82
2021/09/17 06:02:26;;;;;;;25.50;16.40;;;;;;;11.37;100.00;101131.92;1723625;81;21133;-83
2021/09/17 06:04:55;;;;;;;86.05;42.93;;;;;;;11.52;100.00;101133.90;1702627;81;21077;-81
2021/09/17 06:07:23;;;;;;;57.38;30.95;;;;;;;11.67;100.00;101131.50;1702899;82;21042;-82
2021/09/17 06:09:50;;;;;;;51.18;28.70;;;;;;;11.84;100.00;101130.30;1666963;84;21108;-81
2021/09/17 06:12:17;;;;;;;37.60;24.27;;;;;;;12.01;100.00;101124.81;1666999;84;21586;-80
2021/09/17 06:14:44;;;;;;;27.55;19.30;;;;;;;12.17;100.00;101129.27;1666990;84;21630;-84
2021/09/17 06:17:13;;;;;;;30.15;17.37;;;;;;;12.33;100.00;101127.68;1678979;84;21535;-83
2021/09/17 06:19:40;;;;;;;23.98;16.12;;;;;;;12.50;100.00;101131.63;1667259;84;21528;-84
2021/09/17 06:22:07;;;;;;;29.65;16.23;;;;;;;12.64;100.00;101129.29;1667194;84;21115;-84
2021/09/17 06:24:36;;;;;;;22.10;15.80;;;;;;;12.81;100.00;101129.30;1667024;84;21552;-85
2021/09/17 06:27:03;;;;;;;26.27;15.80;;;;;;;12.98;100.00;101124.07;1667112;84;21171;-84
2021/09/17 06:29:32;;;;;;;24.45;14.40;;;;;;;13.12;100.00;101125.63;1667276;84;21072;-83
2021/09/17 06:31:59;;;;;;;21.82;14.63;;;;;;;13.28;100.00;101128.34;1679089;84;20973;-81
2021/09/17 06:34:26;;;;;;;23.57;14.18;;;;;;;13.45;100.00;101126.58;1667399;84;21802;-84
2021/09/17 06:36:54;;;;;;;17.10;13.18;;;;;;;13.61;100.00;101123.58;1667285;84;21673;-83
2021/09/17 06:39:22;;;;;;;19.42;13.93;;;;;;;13.76;100.00;101117.58;1679265;84;21048;-81
2021/09/17 06:41:50;;;;;;;20.08;13.40;;;;;;;13.93;100.00;101112.76;1634068;85;21068;-82
2021/09/17 06:44:19;;;;;;;19.90;12.18;;;;;;;14.10;100.00;101114.02;1679026;84;21017;-84
2021/09/17 06:46:48;;;;;;;16.25;12.55;;;;;;;14.28;100.00;101116.40;1679024;84;21053;-82
2021/09/17 06:49:15;;;;;;;16.12;11.50;;;;;;;14.45;100.00;101110.23;1667248;84;21543;-84
2021/09/17 06:51:43;;;;;;;17.23;12.20;;;;;;;14.60;100.00;101110.25;1667161;84;21111;-84
2021/09/17 06:54:10;;;;;;;15.40;11.12;;;;;;;14.75;100.00;101115.19;1678981;84;21167;-83
2021/09/17 06:56:37;;;;;;;15.25;10.45;;;;;;;14.91;100.00;101110.78;1667195;84;21515;-82
2021/09/17 06:59:05;;;;;;;14.98;10.28;;;;;;;15.08;100.00;101103.61;1679049;84;21124;-84
2021/09/17 07:01:32;;;;;;;13.88;9.70;;;;;;;15.26;100.00;101099.05;1679046;84;21523;-83
2021/09/17 07:03:59;;;;;;;13.50;9.35;;;;;;;15.46;96.30;101096.80;1667034;84;21076;-80
2021/09/17 07:06:32;;;;;;;14.13;9.13;;;;;;;15.70;92.86;101095.58;1679171;84;21010;-87
2021/09/17 07:08:57;;;;;;;14.10;9.75;;;;;;;15.92;87.43;101097.61;1677763;82;21042;-81
2021/09/17 07:11:24;;;;;;;12.60;9.20;;;;;;;16.12;89.68;101088.41;1706529;82;21546;-83
2021/09/17 07:13:53;;;;;;;15.10;8.58;;;;;;;16.32;82.73;101087.41;1762209;81;21070;-80
2021/09/17 07:16:22;;;;;;;13.22;7.47;;;;;;;16.52;78.78;101082.92;1757887;81;21048;-83
2021/09/17 07:18:50;;;;;;;10.72;6.62;;;;;;;16.72;71.40;101082.38;1764634;80;21024;-82
2021/09/17 07:21:18;;;;;;;12.30;7.20;;;;;;;16.90;71.95;101076.35;1743246;81;21090;-83
2021/09/17 07:23:46;;;;;;;9.78;6.37;;;;;;;17.09;67.67;101070.19;1759792;80;21326;-87
2021/09/17 07:26:14;;;;;;;10.93;6.22;;;;;;;17.26;64.34;101071.22;1739698;81;21144;-83
2021/09/17 07:28:43;;;;;;;9.13;6.05;;;;;;;17.43;58.74;101070.05;1766620;81;21077;-87
2021/09/17 07:31:11;;;;;;;9.90;5.28;;;;;;;17.56;58.53;101072.31;1738721;81;21088;-86
2021/09/17 07:33:38;;;;;;;7.97;5.37;;;;;;;17.69;57.19;101065.35;1728720;81;20978;-83
2021/09/17 07:36:05;;;;;;;9.20;5.20;;;;;;;17.86;56.34;101068.97;1743067;81;21952;-90
2021/09/17 07:38:34;;;;;;;7.75;5.08;;;;;;;18.00;52.32;101063.18;1764476;81;20987;-84
2021/09/17 07:41:01;;;;;;;6.25;4.30;;;;;;;18.12;51.45;101059.30;1750026;80;21042;-87
2021/09/17 07:43:28;;;;;;;5.37;3.55;;;;;;;18.24;51.20;101060.37;1748631;80;21106;-82
2021/09/17 07:45:57;;;;;;;6.90;3.90;;;;;;;18.39;49.75;101060.62;1738802;81;21070;-86
2021/09/17 07:48:24;;;;;;;6.00;3.95;;;;;;;18.55;49.68;101055.43;1739879;81;21894;-87
2021/09/17 07:50:52;;;;;;;6.15;4.30;;;;;;;18.68;46.97;101051.55;1748714;80;21501;-87
2021/09/17 07:53:20;;;;;;;7.20;4.25;;;;;;;18.75;45.05;101055.20;1758010;80;21022;-84
2021/09/17 07:55:48;;;;;;;6.15;4.53;;;;;;;18.84;46.41;101052.09;1736918;81;21097;-83
2021/09/17 07:58:15;;;;;;;7.90;4.85;;;;;;;18.95;47.35;101047.89;1726333;81;21046;-85
2021/09/17 08:00:42;;;;;;;9.60;4.95;;;;;;;19.08;46.15;101042.97;1753803;81;21171;-80
2021/09/17 08:03:09;;;;;;;9.23;5.28;;;;;;;19.17;46.57;101037.23;1728765;81;21510;-84
2021/09/17 08:05:36;;;;;;;7.05;4.50;;;;;;;19.24;46.07;101040.03;1679583;82;21089;-83
2021/09/17 08:08:05;;;;;;;5.85;3.30;;;;;;;19.35;46.56;101036.25;1702794;81;21444;-84
2021/09/17 08:10:31;;;;;;;10.10;4.22;;;;;;;19.48;45.57;101031.34;1723613;81;21053;-82
2021/09/17 08:12:59;;;;;;;8.90;3.65;;;;;;;19.60;45.74;101031.00;1703132;81;21832;-88
2021/09/17 08:15:26;;;;;;;5.22;3.52;;;;;;;19.74;45.70;101034.32;1702846;81;21045;-83
2021/09/17 08:17:53;;;;;;;4.83;3.77;;;;;;;19.89;44.43;101031.84;1744010;80;21034;-87
2021/09/17 08:20:21;;;;;;;7.35;3.27;;;;;;;20.01;43.57;101027.05;1744502;80;21013;-84
2021/09/17 08:22:50;;;;;;;4.42;2.87;;;;;;;20.07;44.36;101022.41;1707373;82;21008;-86
2021/09/17 08:25:17;;;;;;;4.05;3.12;;;;;;;20.18;42.64;101029.99;1725135;82;22010;-84
2021/09/17 08:27:45;;;;;;;4.80;3.42;;;;;;;20.30;43.01;101022.52;1706751;83;21095;-85
2021/09/17 08:30:13;;;;;;;5.80;3.52;;;;;;;20.42;41.36;101022.98;1706695;83;21120;-85
2021/09/17 08:32:42;;;;;;;13.03;3.85;;;;;;;20.48;41.86;101020.97;1707147;82;21024;-90
2021/09/17 08:35:11;;;;;;;9.08;3.62;;;;;;;20.55;40.06;101015.02;1746002;81;21164;-83
2021/09/17 08:37:40;;;;;;;7.12;3.22;;;;;;;20.61;40.44;101010.36;1747021;81;21244;-88
2021/09/17 08:40:08;;;;;;;5.03;3.20;;;;;;;20.71;40.75;101014.92;1710178;82;21544;-83
2021/09/17 08:42:37;;;;;;;4.90;2.92;;;;;;;20.83;40.24;101003.48;1704311;81;21092;-87
2021/09/17 08:45:06;;;;;;;5.35;2.95;;;;;;;20.93;39.53;101000.64;1681246;82;21117;-86
2021/09/17 08:47:33;;;;;;;9.98;3.35;;;;;;;21.01;38.82;101004.56;1699112;82;21550;-83
2021/09/17 08:50:01;;;;;;;3.45;2.80;;;;;;;21.06;38.88;101008.82;1678915;84;21767;-88
2021/09/17 08:52:28;;;;;;;3.90;2.95;;;;;;;21.10;38.59;100996.05;1698982;83;21040;-86
2021/09/17 08:54:56;;;;;;;8.40;3.58;;;;;;;21.11;36.47;100995.88;1678828;84;21026;-80
2021/09/17 08:57:23;;;;;;;4.12;3.12;;;;;;;21.10;37.68;100988.11;1704867;83;20983;-84
2021/09/17 08:59:51;;;;;;;5.17;3.17;;;;;;;21.12;36.81;100986.93;1706807;81;21104;-86
2021/09/17 09:02:24;;;;;;;6.15;3.75;;;;;;;21.12;37.24;100982.15;1707089;82;21621;-86
2021/09/17 09:05:01;;;;;;;4.20;3.20;;;;;;;21.15;36.85;100990.23;1642245;86;21558;-87
2021/09/17 09:07:37;;;;;;;4.92;3.50;;;;;;;21.17;38.94;100985.59;1643884;85;21030;-85
2021/09/17 09:10:12;;;;;;;4.67;3.37;;;;;;;21.24;39.96;100982.05;1630063;85;21106;-85
2021/09/17 09:12:49;;;;;;;9.43;3.98;;;;;;;21.38;38.45;100983.63;1651532;85;21094;-89
2021/09/17 09:15:26;;;;;;;4.42;3.27;;;;;;;21.42;38.75;100979.59;1651760;85;21107;-87
2021/09/17 09:18:06;;;;;;;5.10;3.50;;;;;;;21.46;38.30;100975.61;1672934;85;21521;-83
2021/09/17 09:20:40;;;;;;;10.35;3.95;;;;;;;21.56;38.41;100982.78;1671647;85;21070;-85
2021/09/17 09:23:18;;;;;;;4.35;3.70;;;;;;;21.65;38.18;100971.66;1669478;85;21126;-85
2021/09/17 09:26:03;;;;;;;5.03;3.60;;;;;;;21.73;38.29;100970.74;1672773;85;21035;-84
2021/09/17 09:28:42;;;;;;;3.98;3.27;;;;;;;21.82;38.21;100972.83;1651644;85;21071;-86
2021/09/17 09:31:18;;;;;;;6.75;3.30;;;;;;;21.93;37.19;100967.06;1673117;84;21673;-87
2021/09/17 09:33:48;;;;;;;9.45;3.60;;;;;;;22.02;36.95;100965.97;1673118;84;21024;-82
2021/09/17 09:36:22;;;;;;;9.50;3.72;;;;;;;22.09;37.31;100967.89;1673060;84;21063;-87
2021/09/17 09:38:56;;;;;;;5.45;3.37;;;;;;;22.16;37.82;100965.66;1672865;84;21550;-86
2021/09/17 09:41:26;;;;;;;5.67;2.92;;;;;;;22.25;35.67;100962.91;1673047;84;21865;-84
2021/09/17 09:44:00;;;;;;;4.87;3.58;;;;;;;22.23;37.31;100951.17;1728824;82;21054;-88
2021/09/17 09:46:34;;;;;;;7.83;3.72;;;;;;;22.31;37.08;100957.67;1712149;82;21019;-87
2021/09/17 09:49:24;;;;;;;6.25;3.25;;;;;;;22.41;36.24;100956.59;1733105;82;21057;-86
2021/09/17 09:52:06;;;;;;;6.53;3.20;;;;;;;22.42;35.39;100959.09;1712417;82;21050;-86
2021/09/17 09:54:35;;;;;;;5.10;3.47;;;;;;;22.33;35.18;100954.34;1730460;82;21007;-85
2021/09/17 09:57:04;;;;;;;5.22;3.08;;;;;;;22.30;36.32;100949.42;1712322;82;21596;-92
2021/09/17 09:59:35;;;;;;;6.03;3.20;;;;;;;22.34;36.08;100952.02;1712409;82;21608;-88
2021/09/17 10:02:05;;;;;;;4.05;3.35;;;;;;;22.42;36.60;100950.29;1707139;82;21019;-84
2021/09/17 10:04:33;;;;;;;5.20;3.40;;;;;;;22.51;36.48;100954.48;1712695;82;20994;-82
2021/09/17 10:07:09;;;;;;;4.85;3.27;;;;;;;22.53;34.82;100947.17;1733094;82;21059;-84
2021/09/17 10:09:40;;;;;;;7.95;3.33;;;;;;;22.43;34.26;100940.00;1712354;82;21007;-85
2021/09/17 10:12:10;;;;;;;4.78;3.55;;;;;;;22.31;35.48;100937.78;1712394;82;21528;-86
2021/09/17 10:14:45;;;;;;;4.20;3.12;;;;;;;22.22;35.85;100940.23;1712710;82;21089;-88
2021/09/17 10:17:22;;;;;;;5.95;3.50;;;;;;;22.18;36.65;100930.51;1733539;82;21053;-83
2021/09/17 10:19:49;;;;;;;5.78;3.40;;;;;;;22.15;35.50;100925.56;1711711;82;21046;-88
2021/09/17 10:22:43;;;;;;;6.10;3.37;;;;;;;22.14;34.99;100927.89;1732276;82;21007;-86
2021/09/17 10:25:17;;;;;;;5.00;3.50;;;;;;;22.16;36.11;100918.41;1707705;82;21050;-85
2021/09/17 10:28:08;;;;;;;6.28;3.83;;;;;;;22.28;36.45;100920.92;1706199;82;21592;-87
2021/09/17 10:30:40;;;;;;;5.15;3.58;;;;;;;22.41;35.80;100909.69;1697567;84;21096;-87
2021/09/17 10:33:24;;;;;;;4.53;3.47;;;;;;;22.52;34.83;100910.52;1677574;84;21100;-84
2021/09/17 10:35:53;;;;;;;6.37;3.92;;;;;;;22.64;36.09;100909.52;1696639;84;20980;-85
2021/09/17 10:38:28;;;;;;;7.33;3.92;;;;;;;22.79;35.13;100896.72;1697642;84;21015;-87
2021/09/17 10:41:05;;;;;;;4.95;3.70;;;;;;;22.90;35.51;100896.71;1653121;82;21098;-88
2021/09/17 10:43:43;;;;;;;6.67;3.58;;;;;;;23.00;35.07;100892.72;1682638;83;21086;-83
2021/09/17 10:46:28;;;;;;;6.97;3.37;;;;;;;23.14;34.79;100892.33;1705341;83;21211;-87
2021/09/17 10:48:59;;;;;;;4.22;2.80;;;;;;;23.28;34.03;100884.48;1683001;84;21051;-88
2021/09/17 10:51:41;;;;;;;5.22;3.47;;;;;;;23.40;34.46;100880.27;1705664;83;21521;-89
2021/09/17 10:54:23;;;;;;;5.85;3.67;;;;;;;23.45;33.20;100875.22;1705040;83;21196;-85
2021/09/17 10:57:01;;;;;;;7.60;3.60;;;;;;;23.44;32.68;100874.06;1705423;83;21743;-84
2021/09/17 10:59:42;;;;;;;7.78;3.70;;;;;;;23.36;34.53;100874.20;1685051;84;20991;-85
2021/09/17 11:02:11;;;;;;;6.17;3.77;;;;;;;23.33;34.09;100873.28;1705712;83;21046;-82
2021/09/17 11:04:44;;;;;;;4.92;3.90;;;;;;;23.34;32.85;100869.09;1705215;83;21019;-84
2021/09/17 11:07:25;;;;;;;4.72;3.20;;;;;;;23.36;33.48;100856.94;1662501;83;21125;-87
2021/09/17 11:09:57;;;;;;;6.12;3.83;;;;;;;23.43;33.00;100861.30;1684980;83;21094;-84
2021/09/17 11:12:30;;;;;;;5.45;3.50;;;;;;;23.48;33.22;100855.39;1685274;84;21027;-84
2021/09/17 11:15:01;;;;;;;7.45;3.80;;;;;;;23.58;33.17;100861.19;1684566;84;21103;-86
2021/09/17 11:17:52;;;;;;;6.20;3.90;;;;;;;23.68;32.98;100854.67;1705196;83;21073;-84
2021/09/17 11:20:27;;;;;;;9.50;3.85;;;;;;;23.69;32.62;100853.66;1709031;83;21050;-86
2021/09/17 11:23:06;;;;;;;6.33;4.03;;;;;;;23.67;32.83;100855.72;1705367;83;21573;-83